Pagina principale
METAR-TAF:

METAR-TAF

Aeroporti :

Aeroporto di Crotone

Crotone, Italia

latitudine: 39-00N, longitudine: 017-04E, altezza: 155 m

Osservazione

Il bollettino è stato emesso 6 ore e 4 minuti fa, alle 17:50 UTC
Vento 6 kt da sud-ovest, variando fra sud e ovest
Temperature 18°C
Umidità 59%
Pressione 1012 hPa
Visibilità 10 km o più
nessuna nube inferiore a 1500 m e nessun cumulonembo

METAR: LIBC 151750Z 23006KT 190V280 CAVOK 18/10 Q1012

Ora: 01:54 (23:54 UTC)

Previsione

Il bollettino è stato emesso 12 ore e 54 minuti fa, alle 11:00 UTC
Previsione valida dal 15 alle 12 UTC al 16 alle 12 UTC
Vento 13 kt da ovest/sud-ovest
Visibilità 10 km o più
Nubi sparse ad un'altezza di 4000 ft
Evoluzione graduale
dal 15 alle 18 UTC al 15 alle 20 UTC
Vento 5 kt da direzioni variabili

TAF: LIBC 151100Z 1512/1612 24013KT 9999 SCT040 BECMG 1518/1520 VRB05KT

Osservazioni e previsioni meteorologiche di più di 4000 aeroporti (messaggi METAR e TAF).

Le stazioni disponibili sono rappresentate dai dischi gialli e rossi sulla carta.

Puntare il mouse per vedere il nome della stazione.

Clicca sopra per visualizzare le osservazioni e previsioni meteorologiche.

Per cambiare la mappa : fare clic sui pulsanti verdi con una croce nera per ingrandire, il pulsante verde con un trattino per diminuire, o sulla freccia verde per le mappe adiacenti.


METAR-TAF: